createdAt,value
2023-01-20T00:01:31.151Z,7.07
2023-01-20T00:03:59.107Z,7.60
2023-01-20T00:06:30.424Z,7.90
2023-01-20T00:09:01.696Z,8.53
2023-01-20T00:11:30.009Z,8.70
2023-01-20T00:14:02.485Z,8.87
2023-01-20T00:16:32.205Z,7.67
2023-01-20T00:18:59.743Z,7.63
2023-01-20T00:21:26.779Z,8.00
2023-01-20T00:23:53.798Z,7.30
2023-01-20T00:26:25.151Z,6.60
2023-01-20T00:28:55.946Z,6.20
2023-01-20T00:31:24.928Z,6.90
2023-01-20T00:33:54.907Z,8.30
2023-01-20T00:36:23.368Z,6.70
2023-01-20T00:38:51.170Z,6.33
2023-01-20T00:41:20.163Z,7.10
2023-01-20T00:43:47.113Z,7.13
2023-01-20T00:46:14.183Z,8.10
2023-01-20T00:48:41.534Z,8.03
2023-01-20T00:51:10.867Z,7.07
2023-01-20T00:53:38.170Z,7.47
2023-01-20T00:56:06.285Z,7.57
2023-01-20T00:58:33.322Z,6.73
2023-01-20T01:01:00.674Z,6.70
2023-01-20T01:03:28.826Z,8.50
2023-01-20T01:06:16.955Z,8.03
2023-01-20T01:08:59.942Z,8.03
2023-01-20T01:11:27.053Z,7.33
2023-01-20T01:13:57.188Z,8.67
2023-01-20T01:16:24.274Z,7.33
2023-01-20T01:18:55.164Z,7.30
2023-01-20T01:21:22.615Z,7.63
2023-01-20T01:23:49.538Z,6.80
2023-01-20T01:26:16.499Z,6.83
2023-01-20T01:28:44.177Z,7.90
2023-01-20T01:31:11.328Z,7.47
2023-01-20T01:33:38.870Z,7.43
2023-01-20T01:36:08.888Z,7.33
2023-01-20T01:38:36.246Z,6.30
2023-01-20T01:41:03.275Z,7.93
2023-01-20T01:43:37.290Z,8.30
2023-01-20T01:46:05.309Z,7.00
2023-01-20T01:48:44.814Z,7.17
2023-01-20T01:51:19.922Z,8.43
2023-01-20T01:54:06.259Z,7.77
2023-01-20T01:56:34.339Z,8.20
2023-01-20T01:59:03.821Z,7.77
2023-01-20T02:01:34.160Z,8.43
2023-01-20T02:04:13.036Z,7.20
2023-01-20T02:06:48.413Z,6.33
2023-01-20T02:09:15.891Z,7.63
2023-01-20T02:11:48.899Z,7.40
2023-01-20T02:14:26.579Z,8.20
2023-01-20T02:17:21.823Z,7.63
2023-01-20T02:20:19.606Z,6.87
2023-01-20T02:23:31.697Z,7.70
2023-01-20T02:26:07.502Z,6.87
2023-01-20T02:29:04.823Z,7.97
2023-01-20T02:32:29.386Z,7.07
2023-01-20T02:35:15.311Z,8.90
2023-01-20T02:38:45.010Z,7.50
2023-01-20T02:41:35.703Z,7.17
2023-01-20T02:44:17.529Z,7.53
2023-01-20T02:47:12.955Z,8.93
2023-01-20T02:50:12.217Z,8.60
2023-01-20T02:52:47.309Z,7.97
2023-01-20T02:55:28.480Z,8.37
2023-01-20T02:58:07.954Z,9.20
2023-01-20T03:00:44.264Z,8.57
2023-01-20T03:03:16.484Z,8.40
2023-01-20T03:05:58.518Z,9.77
2023-01-20T03:08:30.031Z,10.77
2023-01-20T03:11:03.868Z,11.20
2023-01-20T03:13:57.533Z,9.60
2023-01-20T03:16:26.962Z,9.87
2023-01-20T03:18:55.057Z,9.87
2023-01-20T03:21:22.931Z,10.40
2023-01-20T03:23:54.694Z,8.70
2023-01-20T03:26:24.014Z,10.47
2023-01-20T03:28:51.832Z,12.33
2023-01-20T03:31:30.408Z,14.50
2023-01-20T03:34:01.486Z,11.10
2023-01-20T03:36:30.422Z,9.77
2023-01-20T03:38:59.615Z,8.67
2023-01-20T03:42:09.701Z,9.50
2023-01-20T03:45:11.882Z,8.63
2023-01-20T03:48:22.493Z,8.77
2023-01-20T03:51:03.054Z,9.23
2023-01-20T03:53:52.744Z,10.37
2023-01-20T03:56:26.698Z,9.33
2023-01-20T03:58:58.203Z,9.73
2023-01-20T04:01:37.809Z,9.97
2023-01-20T04:04:10.758Z,9.67
2023-01-20T04:06:39.444Z,9.53
2023-01-20T04:09:12.821Z,10.10
2023-01-20T04:11:40.204Z,10.10
2023-01-20T04:14:09.779Z,9.60
2023-01-20T04:16:37.741Z,9.87
2023-01-20T04:19:04.718Z,11.00
2023-01-20T04:21:44.014Z,11.20
2023-01-20T04:24:21.913Z,10.30
2023-01-20T04:26:48.820Z,10.90
2023-01-20T04:29:15.809Z,10.80
2023-01-20T04:31:42.839Z,9.93
2023-01-20T04:34:15.769Z,10.23
2023-01-20T04:36:43.049Z,9.17
2023-01-20T04:39:10.474Z,9.50
2023-01-20T04:41:37.464Z,10.07
2023-01-20T04:44:04.504Z,11.13
2023-01-20T04:46:31.519Z,10.30
2023-01-20T04:48:58.570Z,10.13
2023-01-20T04:51:25.593Z,11.67
2023-01-20T04:53:58.336Z,10.60
2023-01-20T04:56:26.098Z,11.13
2023-01-20T04:58:53.249Z,9.97
2023-01-20T05:01:20.257Z,10.33
2023-01-20T05:03:47.376Z,11.20
2023-01-20T05:06:15.688Z,10.97
2023-01-20T05:08:42.580Z,10.60
2023-01-20T05:11:09.753Z,10.87
2023-01-20T05:13:39.557Z,10.10
2023-01-20T05:16:12.043Z,9.53
2023-01-20T05:18:39.165Z,10.40
2023-01-20T05:21:08.981Z,11.23
2023-01-20T05:23:36.534Z,12.93
2023-01-20T05:26:03.562Z,10.20
2023-01-20T05:28:30.589Z,10.97
2023-01-20T05:30:57.647Z,11.70
2023-01-20T05:33:24.834Z,12.10
2023-01-20T05:35:52.349Z,10.03
2023-01-20T05:38:20.033Z,10.30
2023-01-20T05:40:47.103Z,11.70
2023-01-20T05:43:14.144Z,11.73
2023-01-20T05:45:42.483Z,11.63
2023-01-20T05:48:09.639Z,13.33
2023-01-20T05:50:36.676Z,11.60
2023-01-20T05:53:03.645Z,12.63
2023-01-20T05:55:30.653Z,12.27
2023-01-20T05:57:57.596Z,12.27
2023-01-20T06:00:24.666Z,10.90
2023-01-20T06:02:51.867Z,13.93
2023-01-20T06:05:19.446Z,11.10
2023-01-20T06:07:46.530Z,11.47
2023-01-20T06:10:13.565Z,14.63
2023-01-20T06:12:40.673Z,16.27
2023-01-20T06:15:08.633Z,12.27
2023-01-20T06:17:35.996Z,13.07
2023-01-20T06:20:04.535Z,13.50
2023-01-20T06:22:31.563Z,13.50
2023-01-20T06:24:58.527Z,13.80
2023-01-20T06:27:25.517Z,13.07
2023-01-20T06:29:52.567Z,13.30
2023-01-20T06:32:19.594Z,14.93
2023-01-20T06:34:46.637Z,13.37
2023-01-20T06:37:13.795Z,13.70
2023-01-20T06:39:40.982Z,16.10
2023-01-20T06:42:08.287Z,14.60
2023-01-20T06:44:35.362Z,14.27
2023-01-20T06:47:03.134Z,15.70
2023-01-20T06:49:30.636Z,16.50
2023-01-20T06:51:57.700Z,14.67
2023-01-20T06:54:24.766Z,15.37
2023-01-20T06:56:51.782Z,15.97
2023-01-20T06:59:18.982Z,15.37
2023-01-20T07:01:46.026Z,17.60
2023-01-20T07:04:14.569Z,17.57
2023-01-20T07:06:42.549Z,15.17
2023-01-20T07:09:13.326Z,17.20
2023-01-20T07:11:40.844Z,18.53
2023-01-20T07:14:08.557Z,16.03
2023-01-20T07:16:36.382Z,16.00
2023-01-20T07:19:03.600Z,19.80
2023-01-20T07:21:30.667Z,19.83
2023-01-20T07:24:02.067Z,18.27
2023-01-20T07:26:29.256Z,17.77
2023-01-20T07:28:59.165Z,17.80
2023-01-20T07:31:29.320Z,17.50
2023-01-20T07:33:57.047Z,18.93
2023-01-20T07:36:24.939Z,19.80
2023-01-20T07:38:53.994Z,18.87
2023-01-20T07:41:22.133Z,18.13
2023-01-20T07:43:51.770Z,18.90
2023-01-20T07:46:20.391Z,20.27
2023-01-20T07:48:47.568Z,19.10
2023-01-20T07:51:16.610Z,20.03
2023-01-20T07:53:49.399Z,20.70
2023-01-20T07:56:18.968Z,18.93
2023-01-20T07:58:47.732Z,22.20
2023-01-20T08:01:29.881Z,21.60
2023-01-20T08:04:02.382Z,20.63
2023-01-20T08:06:30.339Z,19.47
2023-01-20T08:09:02.186Z,19.33
2023-01-20T08:11:32.327Z,21.83
2023-01-20T08:13:59.991Z,20.77
2023-01-20T08:16:27.022Z,20.33
2023-01-20T08:18:55.061Z,21.70
2023-01-20T08:21:28.863Z,22.00
2023-01-20T08:23:57.456Z,19.97
2023-01-20T08:26:27.491Z,20.70
2023-01-20T08:28:56.098Z,22.40
2023-01-20T08:31:25.333Z,22.50
2023-01-20T08:33:55.377Z,20.13
2023-01-20T08:36:28.193Z,22.77
2023-01-20T08:38:58.117Z,21.37
2023-01-20T08:41:33.676Z,22.50
2023-01-20T08:44:02.704Z,19.13
2023-01-20T08:46:29.696Z,24.10
2023-01-20T08:48:57.366Z,21.03
2023-01-20T08:51:31.194Z,22.03
2023-01-20T08:53:58.726Z,23.87
2023-01-20T08:56:26.466Z,21.57
2023-01-20T08:58:58.445Z,23.40
2023-01-20T09:01:29.606Z,24.50
2023-01-20T09:04:06.542Z,24.17
2023-01-20T09:06:50.655Z,23.70
2023-01-20T09:09:21.666Z,23.60
2023-01-20T09:11:52.141Z,22.87
2023-01-20T09:14:21.191Z,26.17
2023-01-20T09:16:49.125Z,26.90
2023-01-20T09:19:17.081Z,26.60
2023-01-20T09:21:44.692Z,26.80
2023-01-20T09:24:11.854Z,27.27
2023-01-20T09:26:38.932Z,28.60
2023-01-20T09:29:12.834Z,27.37
2023-01-20T09:31:46.621Z,26.43
2023-01-20T09:34:24.867Z,26.23
2023-01-20T09:37:22.009Z,25.73
2023-01-20T09:40:10.613Z,29.23
2023-01-20T09:43:13.000Z,26.77
2023-01-20T09:46:14.323Z,27.27
2023-01-20T09:49:31.691Z,27.83
2023-01-20T09:52:48.995Z,27.67
2023-01-20T09:55:41.262Z,28.17
2023-01-20T09:58:17.139Z,27.17
2023-01-20T10:00:50.803Z,26.20
2023-01-20T10:03:44.700Z,29.67
2023-01-20T10:06:35.385Z,27.70
2023-01-20T10:09:25.203Z,28.90
2023-01-20T10:12:21.867Z,30.10
2023-01-20T10:15:07.696Z,28.27
2023-01-20T10:17:59.473Z,29.33
2023-01-20T10:20:41.448Z,29.87
2023-01-20T10:23:21.693Z,29.30
2023-01-20T10:26:31.936Z,29.00
2023-01-20T10:29:04.334Z,28.30
2023-01-20T10:31:39.467Z,29.37
2023-01-20T10:34:14.229Z,30.03
2023-01-20T10:36:46.384Z,28.03
2023-01-20T10:39:55.066Z,27.07
2023-01-20T10:42:24.319Z,28.67
2023-01-20T10:44:52.816Z,28.43
2023-01-20T10:47:35.791Z,29.33
2023-01-20T10:51:10.938Z,26.97
2023-01-20T10:54:12.779Z,25.87
2023-01-20T10:56:53.696Z,25.87
2023-01-20T10:59:36.837Z,25.83
2023-01-20T11:02:23.259Z,26.53
2023-01-20T11:05:00.164Z,26.20
2023-01-20T11:07:30.278Z,26.90
2023-01-20T11:09:57.318Z,26.20
2023-01-20T11:12:30.074Z,27.77
2023-01-20T11:15:00.880Z,28.70
2023-01-20T11:17:27.853Z,28.90
2023-01-20T11:20:07.224Z,23.93
2023-01-20T11:22:38.083Z,25.43
2023-01-20T11:25:06.407Z,24.40
2023-01-20T11:27:46.243Z,25.07
2023-01-20T11:30:34.221Z,29.07
2023-01-20T11:33:24.922Z,24.50
2023-01-20T11:36:24.339Z,28.37
2023-01-20T11:38:52.825Z,24.87
2023-01-20T11:41:26.853Z,26.63
2023-01-20T11:43:59.958Z,23.93
2023-01-20T11:46:33.432Z,23.47
2023-01-20T11:49:24.778Z,23.33
2023-01-20T11:51:58.302Z,23.10
2023-01-20T11:54:30.672Z,22.90
2023-01-20T11:57:05.118Z,23.37
2023-01-20T11:59:47.865Z,25.20
2023-01-20T12:02:15.206Z,24.60
2023-01-20T12:05:02.743Z,25.03
2023-01-20T12:07:51.696Z,23.17
2023-01-20T12:10:30.931Z,23.80
2023-01-20T12:13:04.985Z,24.27
2023-01-20T12:15:42.520Z,25.70
2023-01-20T12:18:50.399Z,26.30
2023-01-20T12:21:36.019Z,24.00
2023-01-20T12:24:49.303Z,23.10
2023-01-20T12:27:25.692Z,27.07
2023-01-20T12:29:59.196Z,24.80
2023-01-20T12:32:26.271Z,28.00
2023-01-20T12:34:53.320Z,26.30
2023-01-20T12:37:40.221Z,25.80
2023-01-20T12:40:46.590Z,25.37
2023-01-20T12:43:16.674Z,22.40
2023-01-20T12:46:14.948Z,25.43
2023-01-20T12:49:20.280Z,24.40
2023-01-20T12:52:24.602Z,25.20
2023-01-20T12:55:18.220Z,26.50
2023-01-20T12:57:48.032Z,26.50
2023-01-20T13:00:48.147Z,26.40
2023-01-20T13:03:27.010Z,25.90
2023-01-20T13:06:30.355Z,27.87
2023-01-20T13:09:27.993Z,25.40
2023-01-20T13:12:26.461Z,27.00
2023-01-20T13:15:15.392Z,28.63
2023-01-20T13:18:15.595Z,26.77
2023-01-20T13:20:47.913Z,25.97
2023-01-20T13:23:22.000Z,29.03
2023-01-20T13:25:51.020Z,28.80
2023-01-20T13:28:22.600Z,30.43
2023-01-20T13:30:54.421Z,27.87
2023-01-20T13:33:41.139Z,31.87
2023-01-20T13:36:23.540Z,36.73
2023-01-20T13:39:30.113Z,30.27
2023-01-20T13:41:57.170Z,27.70
2023-01-20T13:44:35.694Z,28.63
2023-01-20T13:47:08.023Z,28.80
2023-01-20T13:49:52.290Z,26.00
2023-01-20T13:52:50.485Z,26.13
2023-01-20T13:55:45.632Z,21.80
2023-01-20T13:58:32.662Z,24.77
2023-01-20T14:01:10.481Z,23.20
2023-01-20T14:03:40.158Z,26.20
2023-01-20T14:06:20.919Z,25.10
2023-01-20T14:08:50.922Z,26.30
2023-01-20T14:11:21.753Z,24.87
2023-01-20T14:14:02.313Z,24.27
2023-01-20T14:16:35.003Z,26.80
2023-01-20T14:19:19.081Z,25.70
2023-01-20T14:21:53.793Z,22.53
2023-01-20T14:25:05.850Z,25.70
2023-01-20T14:27:38.209Z,28.37
2023-01-20T14:30:17.770Z,27.63
2023-01-20T14:32:46.027Z,21.97
2023-01-20T14:35:27.784Z,29.00
2023-01-20T14:37:55.887Z,22.00
2023-01-20T14:40:31.396Z,29.40
2023-01-20T14:43:19.757Z,28.17
2023-01-20T14:45:51.639Z,27.33
2023-01-20T14:48:33.359Z,27.83
2023-01-20T14:51:04.551Z,32.00
2023-01-20T14:53:32.011Z,33.57
2023-01-20T14:56:08.396Z,28.10
2023-01-20T14:58:36.593Z,28.20
2023-01-20T15:01:07.103Z,30.53
2023-01-20T15:03:34.523Z,28.80
2023-01-20T15:06:12.355Z,30.37
2023-01-20T15:08:41.065Z,29.23
2023-01-20T15:11:18.688Z,27.90
2023-01-20T15:14:11.143Z,29.20
2023-01-20T15:16:44.206Z,32.10
2023-01-20T15:19:14.007Z,29.20
2023-01-20T15:21:48.036Z,28.40
2023-01-20T15:24:32.649Z,32.40
2023-01-20T15:27:02.634Z,28.90
2023-01-20T15:29:36.697Z,28.17
2023-01-20T15:32:12.134Z,29.87
2023-01-20T15:34:39.600Z,26.03
2023-01-20T15:37:21.309Z,26.50
2023-01-20T15:39:48.234Z,29.53
2023-01-20T15:42:35.090Z,26.57
2023-01-20T15:45:02.067Z,26.70
2023-01-20T15:47:31.572Z,24.37
2023-01-20T15:49:59.128Z,26.60
2023-01-20T15:52:26.499Z,29.93
2023-01-20T15:54:53.467Z,28.70
2023-01-20T15:57:20.420Z,29.07
2023-01-20T15:59:49.882Z,31.40
2023-01-20T16:02:23.215Z,32.70
2023-01-20T16:04:50.734Z,31.03
2023-01-20T16:07:20.555Z,30.27
2023-01-20T16:09:47.885Z,28.47
2023-01-20T16:12:17.543Z,28.27
2023-01-20T16:14:45.631Z,28.90
2023-01-20T16:17:21.584Z,31.10
2023-01-20T16:19:49.787Z,31.60
2023-01-20T16:22:17.694Z,28.93
2023-01-20T16:24:44.735Z,29.13
2023-01-20T16:27:23.150Z,28.00
2023-01-20T16:29:50.899Z,28.73
2023-01-20T16:32:22.139Z,35.53
2023-01-20T16:34:49.931Z,30.87
2023-01-20T16:37:16.819Z,34.90
2023-01-20T16:39:43.785Z,30.43
2023-01-20T16:42:13.311Z,30.87
2023-01-20T16:44:40.335Z,31.27
2023-01-20T16:47:17.340Z,28.60
2023-01-20T16:49:44.346Z,29.87
2023-01-20T16:52:12.254Z,31.43
2023-01-20T16:54:39.224Z,30.30
2023-01-20T16:57:06.164Z,32.00
2023-01-20T16:59:33.245Z,31.50
2023-01-20T17:02:00.202Z,29.97
2023-01-20T17:04:27.295Z,30.60
2023-01-20T17:06:54.331Z,30.60
2023-01-20T17:09:21.345Z,32.70
2023-01-20T17:11:48.324Z,30.53
2023-01-20T17:14:16.035Z,33.77
2023-01-20T17:16:43.748Z,27.93
2023-01-20T17:19:11.382Z,29.33
2023-01-20T17:21:39.470Z,30.57
2023-01-20T17:24:07.851Z,30.20
2023-01-20T17:26:34.972Z,30.10
2023-01-20T17:29:04.758Z,29.70
2023-01-20T17:31:36.965Z,29.83
2023-01-20T17:34:05.714Z,32.97
2023-01-20T17:36:35.014Z,28.10
2023-01-20T17:39:06.578Z,30.93
2023-01-20T17:41:34.845Z,30.37
2023-01-20T17:44:01.995Z,30.47
2023-01-20T17:46:30.415Z,30.27
2023-01-20T17:48:59.896Z,31.43
2023-01-20T17:51:29.409Z,29.57
2023-01-20T17:53:58.522Z,29.20
2023-01-20T17:56:26.348Z,35.77
2023-01-20T17:58:54.474Z,33.03
2023-01-20T18:01:23.113Z,32.83
2023-01-20T18:03:53.081Z,34.40
2023-01-20T18:06:23.221Z,30.97
2023-01-20T18:08:56.671Z,36.17
2023-01-20T18:11:27.249Z,33.57
2023-01-20T18:13:56.976Z,32.13
2023-01-20T18:16:29.745Z,33.57
2023-01-20T18:18:59.096Z,30.63
2023-01-20T18:21:35.887Z,32.17
2023-01-20T18:24:05.396Z,30.40
2023-01-20T18:26:34.887Z,34.37
2023-01-20T18:29:05.644Z,33.67
2023-01-20T18:31:33.795Z,32.77
2023-01-20T18:34:04.731Z,32.17
2023-01-20T18:36:38.749Z,33.63
2023-01-20T18:39:18.969Z,33.23
2023-01-20T18:41:46.898Z,30.50
2023-01-20T18:44:13.930Z,29.77
2023-01-20T18:46:41.612Z,28.23
2023-01-20T18:49:09.974Z,30.43
2023-01-20T18:51:37.549Z,30.47
2023-01-20T18:54:13.351Z,24.80
2023-01-20T18:56:40.884Z,30.33
2023-01-20T18:59:07.868Z,27.77
2023-01-20T19:01:40.116Z,28.67
2023-01-20T19:04:10.819Z,26.47
2023-01-20T19:06:44.264Z,30.30
2023-01-20T19:09:12.912Z,31.90
2023-01-20T19:11:41.418Z,30.37
2023-01-20T19:14:13.055Z,28.70
2023-01-20T19:16:49.383Z,27.80
2023-01-20T19:19:20.176Z,29.73
2023-01-20T19:21:51.914Z,30.00
2023-01-20T19:24:21.566Z,29.73
2023-01-20T19:26:49.020Z,32.17
2023-01-20T19:29:17.708Z,27.83
2023-01-20T19:31:45.628Z,29.77
2023-01-20T19:34:13.151Z,28.73
2023-01-20T19:36:40.194Z,27.27
2023-01-20T19:39:08.643Z,27.27
2023-01-20T19:41:36.532Z,28.23
2023-01-20T19:44:06.891Z,26.93
2023-01-20T19:46:39.720Z,25.87
2023-01-20T19:49:08.217Z,26.03
2023-01-20T19:51:36.694Z,25.87
2023-01-20T19:54:07.019Z,26.47
2023-01-20T19:56:35.900Z,26.10
2023-01-20T19:59:06.185Z,27.30
2023-01-20T20:01:37.045Z,25.90
2023-01-20T20:04:08.526Z,25.80
2023-01-20T20:06:39.310Z,25.47
2023-01-20T20:09:26.219Z,25.00
2023-01-20T20:11:54.277Z,28.10
2023-01-20T20:14:23.966Z,25.70
2023-01-20T20:16:53.538Z,24.90
2023-01-20T20:19:23.253Z,26.67
2023-01-20T20:21:50.337Z,26.13
2023-01-20T20:24:19.204Z,25.90
2023-01-20T20:26:47.524Z,27.33
2023-01-20T20:29:18.950Z,25.63
2023-01-20T20:31:47.146Z,25.63
2023-01-20T20:34:18.615Z,25.50
2023-01-20T20:36:48.220Z,27.50
2023-01-20T20:39:18.394Z,26.17
2023-01-20T20:41:46.754Z,29.30
2023-01-20T20:44:13.853Z,27.77
2023-01-20T20:46:41.450Z,28.57
2023-01-20T20:49:14.552Z,27.53
2023-01-20T20:51:41.501Z,27.60
2023-01-20T20:54:12.316Z,26.27
2023-01-20T20:56:39.238Z,31.33
2023-01-20T20:59:06.166Z,28.40
2023-01-20T21:01:34.733Z,31.40
2023-01-20T21:04:05.934Z,26.13
2023-01-20T21:06:33.940Z,27.20
2023-01-20T21:09:00.970Z,28.07
2023-01-20T21:11:28.611Z,29.57
2023-01-20T21:13:55.753Z,30.20
2023-01-20T21:16:24.183Z,28.20
2023-01-20T21:18:55.453Z,28.27
2023-01-20T21:21:23.888Z,30.17
2023-01-20T21:23:57.571Z,25.30
2023-01-20T21:26:29.820Z,28.77
2023-01-20T21:28:57.695Z,30.03
2023-01-20T21:31:26.884Z,31.50
2023-01-20T21:33:58.524Z,31.30
2023-01-20T21:36:27.219Z,32.30
2023-01-20T21:38:54.684Z,34.97
2023-01-20T21:41:22.161Z,34.37
2023-01-20T21:44:07.668Z,33.77
2023-01-20T21:46:40.359Z,33.77
2023-01-20T21:49:29.359Z,37.27
2023-01-20T21:52:15.717Z,35.07
2023-01-20T21:54:45.135Z,37.87
2023-01-20T21:57:14.405Z,38.43
2023-01-20T21:59:41.785Z,37.97
2023-01-20T22:02:10.069Z,39.00
2023-01-20T22:04:37.061Z,33.83
2023-01-20T22:07:04.094Z,37.90
2023-01-20T22:09:31.107Z,37.57
2023-01-20T22:11:58.121Z,38.23
2023-01-20T22:14:25.316Z,37.80
2023-01-20T22:16:52.252Z,37.00
2023-01-20T22:19:19.230Z,33.03
2023-01-20T22:21:46.191Z,34.90
2023-01-20T22:24:13.367Z,35.27
2023-01-20T22:26:40.418Z,39.17
2023-01-20T22:29:07.451Z,36.60
2023-01-20T22:31:34.607Z,37.10
2023-01-20T22:34:05.298Z,37.30
2023-01-20T22:36:34.190Z,35.33
2023-01-20T22:39:02.778Z,35.13
2023-01-20T22:41:30.974Z,36.40
2023-01-20T22:43:58.101Z,34.40
2023-01-20T22:46:28.263Z,34.13
2023-01-20T22:48:59.747Z,35.37
2023-01-20T22:51:29.817Z,37.07
2023-01-20T22:53:59.864Z,33.30
2023-01-20T22:56:32.826Z,37.20
2023-01-20T22:59:00.747Z,37.10
2023-01-20T23:01:34.277Z,34.97
2023-01-20T23:04:05.359Z,37.57
2023-01-20T23:06:35.592Z,34.87
2023-01-20T23:09:12.992Z,37.33
2023-01-20T23:11:41.305Z,34.87
2023-01-20T23:14:13.075Z,33.20
2023-01-20T23:16:42.188Z,36.20
2023-01-20T23:19:10.236Z,35.90
2023-01-20T23:21:37.264Z,39.37
2023-01-20T23:24:04.434Z,30.40
2023-01-20T23:26:31.448Z,35.20
2023-01-20T23:28:58.560Z,35.07
2023-01-20T23:31:28.574Z,36.20
2023-01-20T23:33:55.607Z,34.80
2023-01-20T23:36:26.202Z,36.07
2023-01-20T23:38:55.607Z,34.43
2023-01-20T23:41:22.928Z,34.93
2023-01-20T23:43:49.883Z,35.60
2023-01-20T23:46:17.076Z,34.50
2023-01-20T23:48:47.003Z,35.57
2023-01-20T23:51:14.298Z,36.10
2023-01-20T23:53:42.235Z,33.90
2023-01-20T23:56:19.750Z,35.80
2023-01-20T23:58:47.782Z,31.23
